Time;durP1;ratioP1;P1;durP2;ratioP2;P2;SDS_P1;SDS_P2;PMS_P1;PMS_P2;Temp;Humidity;BMP_temperature;BMP_pressure;BME280_temperature;BME280_humidity;BME280_pressure;Samples;Min_cycle;Max_cycle;Signal;HPM_P1;HPM_P2
2022/05/01 00:02:07;;;;;;;2.83;1.63;;;;;;;12.80;78.74;101654.88;5066182;28;20067;-66
2022/05/01 00:04:34;;;;;;;12.02;1.98;;;;;;;12.89;78.23;101652.81;5064064;28;20082;-65
2022/05/01 00:06:59;;;;;;;5.85;2.47;;;;;;;12.72;79.21;101659.28;5048850;28;20033;-65
2022/05/01 00:09:25;;;;;;;1.75;1.60;;;;;;;12.74;79.42;101656.28;5066878;28;20036;-66
2022/05/01 00:11:51;;;;;;;1.73;1.40;;;;;;;12.71;79.31;101657.72;5068321;28;20055;-66
2022/05/01 00:14:17;;;;;;;2.47;1.70;;;;;;;12.67;80.29;101654.16;5048046;28;20033;-66
2022/05/01 00:16:43;;;;;;;2.60;1.90;;;;;;;12.63;79.75;101656.75;5067252;28;20478;-65
2022/05/01 00:19:09;;;;;;;3.42;2.15;;;;;;;12.64;80.06;101663.72;5066659;28;20479;-63
2022/05/01 00:21:38;;;;;;;4.55;1.83;;;;;;;12.58;80.23;101656.22;5059563;28;20047;-64
2022/05/01 00:24:05;;;;;;;5.05;2.38;;;;;;;12.55;80.56;101652.28;5067187;28;20048;-66
2022/05/01 00:26:30;;;;;;;3.40;1.95;;;;;;;12.39;81.28;101648.72;5066048;28;20099;-63
2022/05/01 00:29:00;;;;;;;6.43;1.95;;;;;;;12.51;80.01;101647.88;5046707;28;20024;-66
2022/05/01 00:31:26;;;;;;;5.57;1.95;;;;;;;12.48;79.96;101651.28;5067263;28;20471;-66
2022/05/01 00:36:35;;;;;;;2.47;1.88;;;;;;;12.27;81.39;101640.63;5061434;28;20494;-65
2022/05/01 00:39:05;;;;;;;7.47;2.88;;;;;;;12.25;81.86;101642.88;5050751;28;20032;-63
2022/05/01 00:41:40;;;;;;;2.53;1.83;;;;;;;12.26;81.66;101640.97;5061642;28;20033;-63
2022/05/01 00:44:10;;;;;;;2.38;2.08;;;;;;;12.18;82.12;101640.00;5068007;28;20024;-64
2022/05/01 00:46:41;;;;;;;3.75;2.00;;;;;;;12.19;82.21;101641.56;5067852;28;20068;-63
2022/05/01 00:49:09;;;;;;;;;;;;;;;12.15;83.06;101637.97;5069222;28;20031;-67
2022/05/01 00:51:55;;;;;;;1.35;1.25;;;;;;;12.18;82.70;101640.00;5066227;28;20377;-67
2022/05/01 00:54:25;;;;;;;2.22;1.77;;;;;;;12.21;82.25;101636.63;5061544;28;20039;-66
2022/05/01 00:56:54;;;;;;;5.23;2.23;;;;;;;12.16;82.65;101647.63;5067710;28;20390;-66
2022/05/01 00:59:21;;;;;;;5.18;2.47;;;;;;;12.15;82.09;101640.69;5068262;28;20171;-66
2022/05/01 01:01:50;;;;;;;3.70;2.47;;;;;;;12.15;82.22;101646.09;5066967;28;20024;-66
2022/05/01 01:04:16;;;;;;;3.53;2.40;;;;;;;11.99;82.21;101647.91;5062132;28;20032;-66
2022/05/01 01:06:42;;;;;;;3.13;1.92;;;;;;;11.89;82.37;101647.56;5060207;28;20032;-65
2022/05/01 01:09:09;;;;;;;3.72;2.05;;;;;;;11.90;82.91;101647.25;5067837;28;20127;-65
2022/05/01 01:11:36;;;;;;;8.13;1.80;;;;;;;11.87;83.21;101645.19;5049535;28;20036;-66
2022/05/01 01:14:05;;;;;;;4.72;2.20;;;;;;;11.77;83.57;101643.75;5066535;28;20055;-66
2022/05/01 01:16:38;;;;;;;2.67;2.28;;;;;;;11.71;83.94;101657.81;5060822;28;20087;-66
2022/05/01 01:19:06;;;;;;;2.60;2.40;;;;;;;11.70;84.24;101646.22;5066771;28;20024;-67
2022/05/01 01:21:31;;;;;;;2.95;2.13;;;;;;;11.67;83.79;101646.88;5067218;28;20030;-66
2022/05/01 01:23:57;;;;;;;4.88;2.22;;;;;;;11.65;84.56;101653.72;5063674;28;20384;-67
2022/05/01 01:26:23;;;;;;;4.07;2.67;;;;;;;11.68;84.75;101644.97;5048962;28;20033;-66
2022/05/01 01:28:48;;;;;;;6.50;2.00;;;;;;;11.70;85.07;101650.84;5067116;28;20082;-64
2022/05/01 01:34:05;;;;;;;4.93;2.42;;;;;;;11.77;83.75;101656.44;5051431;28;20072;-64
2022/05/01 01:36:32;;;;;;;3.88;2.20;;;;;;;11.68;84.71;101650.38;5063227;28;20272;-63
2022/05/01 01:38:59;;;;;;;3.20;2.17;;;;;;;11.67;84.51;101662.31;5070916;28;20390;-66
2022/05/01 01:41:28;;;;;;;2.92;1.77;;;;;;;11.60;84.72;101657.44;5068078;28;20498;-63
2022/05/01 01:43:54;;;;;;;5.50;2.90;;;;;;;11.60;85.25;101653.94;5071053;28;20064;-64
2022/05/01 01:46:19;;;;;;;4.10;2.33;;;;;;;11.52;85.39;101654.81;5070456;28;21452;-64
2022/05/01 01:48:46;;;;;;;6.72;2.75;;;;;;;11.50;84.79;101646.28;5069567;28;20399;-63
2022/05/01 01:51:12;;;;;;;2.88;1.95;;;;;;;11.43;85.70;101649.56;5051826;28;20482;-65
2022/05/01 01:53:37;;;;;;;13.23;1.92;;;;;;;11.54;85.36;101656.06;5070703;28;20036;-65
2022/05/01 01:56:04;;;;;;;4.72;2.60;;;;;;;11.50;85.36;101652.47;5071118;28;20479;-61
2022/05/01 01:58:30;;;;;;;3.30;2.28;;;;;;;11.56;85.07;101661.13;5069961;28;20036;-65
2022/05/01 02:00:56;;;;;;;2.55;2.28;;;;;;;11.57;85.61;101662.72;5054794;28;20082;-66
2022/05/01 02:03:22;;;;;;;6.43;2.05;;;;;;;11.57;84.97;101668.13;5051807;28;20059;-62
2022/05/01 02:05:49;;;;;;;3.97;1.95;;;;;;;11.50;85.71;101662.47;5069582;28;20413;-66
2022/05/01 02:08:15;;;;;;;4.03;2.00;;;;;;;11.40;86.23;101665.63;5070319;28;20086;-66
2022/05/01 02:10:40;;;;;;;3.45;1.77;;;;;;;11.46;86.13;101665.06;5066362;28;20033;-65
2022/05/01 02:13:06;;;;;;;2.40;1.60;;;;;;;11.39;86.20;101672.13;5070928;28;20028;-65
2022/05/01 02:15:33;;;;;;;15.80;2.53;;;;;;;11.44;86.41;101669.22;5034917;28;20043;-63
2022/05/01 02:18:00;;;;;;;4.13;2.25;;;;;;;11.50;85.79;101676.75;5065348;28;20041;-66
2022/05/01 02:20:27;;;;;;;2.65;2.05;;;;;;;11.49;85.90;101671.69;5067158;28;20446;-66
2022/05/01 02:22:53;;;;;;;6.80;2.92;;;;;;;11.42;86.21;101663.38;5065776;28;20042;-66
2022/05/01 02:25:22;;;;;;;4.72;2.40;;;;;;;11.53;85.84;101664.50;5070324;28;20487;-67
2022/05/01 02:27:48;;;;;;;4.90;1.83;;;;;;;11.46;85.83;101662.34;5072119;28;20028;-63
2022/05/01 02:30:14;;;;;;;2.95;1.63;;;;;;;11.44;85.48;101661.13;5065993;28;20040;-66
2022/05/01 02:32:40;;;;;;;3.70;2.15;;;;;;;11.43;86.52;101664.94;5070789;28;20036;-65
2022/05/01 02:35:08;;;;;;;4.53;1.98;;;;;;;11.42;86.31;101658.00;5070126;28;20038;-65
2022/05/01 02:37:34;;;;;;;7.70;2.05;;;;;;;11.37;86.68;101658.19;5071082;28;20068;-66
2022/05/01 02:40:00;;;;;;;2.72;1.35;;;;;;;11.61;85.12;101663.63;5069182;28;20044;-66
2022/05/01 02:42:25;;;;;;;3.17;1.75;;;;;;;11.45;85.76;101658.09;5070679;28;20501;-65
2022/05/01 02:44:51;;;;;;;5.20;1.52;;;;;;;11.44;85.63;101648.41;5071554;28;20090;-63
2022/05/01 02:47:16;;;;;;;4.07;2.33;;;;;;;11.71;83.52;101647.78;5069764;28;20021;-66
2022/05/01 02:49:42;;;;;;;1.42;1.33;;;;;;;11.60;84.54;101656.63;5056190;28;20036;-66
2022/05/01 02:52:09;;;;;;;2.78;1.52;;;;;;;11.43;85.42;101656.84;5068515;28;20032;-65
2022/05/01 02:54:35;;;;;;;1.92;1.48;;;;;;;11.45;85.71;101662.69;5066361;28;20040;-66
2022/05/01 02:57:01;;;;;;;3.53;1.73;;;;;;;11.60;83.80;101662.03;5066963;28;20028;-65
2022/05/01 02:59:26;;;;;;;1.63;1.30;;;;;;;11.43;84.89;101660.34;5069795;28;20021;-66
2022/05/01 03:01:52;;;;;;;2.80;1.98;;;;;;;11.39;85.51;101659.44;5066341;28;20033;-66
2022/05/01 03:04:17;;;;;;;1.98;1.45;;;;;;;11.25;86.83;101666.25;5066289;28;20766;-63
2022/05/01 03:06:43;;;;;;;3.50;2.13;;;;;;;11.14;87.27;101654.31;5045757;28;20032;-66
2022/05/01 03:09:08;;;;;;;3.13;1.42;;;;;;;11.55;84.89;101665.75;5070057;28;20040;-63
2022/05/01 03:11:36;;;;;;;8.70;1.92;;;;;;;11.34;86.46;101656.94;5069868;28;20024;-65
2022/05/01 03:14:03;;;;;;;2.00;1.75;;;;;;;11.33;86.25;101651.88;5068964;28;20033;-65
2022/05/01 03:16:29;;;;;;;3.17;1.58;;;;;;;11.27;87.42;101645.13;5068645;28;20486;-64
2022/05/01 03:24:23;;;;;;;6.30;1.63;;;;;;;11.24;87.44;101638.53;5051142;28;20029;-66
2022/05/01 03:26:49;;;;;;;2.75;1.75;;;;;;;11.23;87.59;101646.91;5068190;28;20040;-64
2022/05/01 03:29:15;;;;;;;2.58;1.40;;;;;;;11.28;87.34;101650.22;5054311;28;20098;-64
2022/05/01 03:31:41;;;;;;;2.75;2.45;;;;;;;11.33;86.57;101651.88;5065710;28;20546;-64
2022/05/01 03:34:07;;;;;;;2.28;1.70;;;;;;;11.27;87.21;101643.22;5066941;28;20111;-61
2022/05/01 03:36:33;;;;;;;2.00;1.42;;;;;;;11.67;84.05;101651.53;5066242;28;20033;-64
2022/05/01 03:38:59;;;;;;;2.20;1.58;;;;;;;11.59;84.03;101647.00;5047245;28;20494;-66
2022/05/01 03:41:26;;;;;;;4.78;1.55;;;;;;;11.36;85.55;101638.50;5069012;28;20051;-63
2022/05/01 03:43:52;;;;;;;4.05;1.13;;;;;;;11.15;87.44;101640.50;5067507;28;20406;-65
2022/05/01 03:46:20;;;;;;;1.60;1.15;;;;;;;11.02;88.25;101641.59;5066774;28;20062;-66
2022/05/01 03:48:46;;;;;;;9.15;1.88;;;;;;;11.01;88.96;101633.84;5050493;28;20403;-66
2022/05/01 03:51:12;;;;;;;3.55;1.85;;;;;;;11.30;86.53;101644.47;5087811;22;20051;-69
2022/05/01 03:53:38;;;;;;;5.10;1.50;;;;;;;11.15;88.03;101637.03;5085238;28;20395;-69
2022/05/01 03:56:04;;;;;;;5.10;1.98;;;;;;;11.07;88.86;101640.63;5111350;28;20028;-69
2022/05/01 03:58:30;;;;;;;2.45;1.88;;;;;;;11.19;87.55;101646.03;5110452;28;20046;-69
2022/05/01 04:00:56;;;;;;;3.78;1.67;;;;;;;11.30;87.46;101644.47;5103274;28;20070;-69
2022/05/01 04:03:22;;;;;;;1.30;1.00;;;;;;;11.31;87.38;101648.75;5090706;28;20028;-69
2022/05/01 04:05:48;;;;;;;1.92;1.42;;;;;;;11.22;86.93;101642.66;5087221;28;20024;-68
2022/05/01 04:08:13;;;;;;;2.55;1.30;;;;;;;11.08;88.37;101636.78;5087928;28;20035;-69
2022/05/01 04:10:41;;;;;;;3.33;1.77;;;;;;;11.15;88.53;101645.91;5090197;28;20446;-69
2022/05/01 04:13:07;;;;;;;1.85;1.52;;;;;;;11.10;88.56;101646.13;5090993;28;20032;-69
2022/05/01 04:15:33;;;;;;;2.20;1.23;;;;;;;11.27;87.77;101654.00;5090481;28;20024;-69
2022/05/01 04:17:58;;;;;;;2.28;1.13;;;;;;;11.08;88.71;101645.66;5089681;28;20404;-69
2022/05/01 04:20:25;;;;;;;3.40;2.20;;;;;;;11.07;89.29;101646.78;5090234;28;20040;-69
2022/05/01 04:22:51;;;;;;;4.63;1.88;;;;;;;11.02;89.33;101649.69;5069906;28;20607;-69
2022/05/01 04:25:22;;;;;;;2.25;1.50;;;;;;;11.37;87.20;101655.50;5082576;28;20093;-67
2022/05/01 04:27:51;;;;;;;1.80;1.40;;;;;;;11.42;86.81;101656.06;5085531;28;20074;-69
2022/05/01 04:30:18;;;;;;;1.60;1.45;;;;;;;11.26;87.51;101655.16;5090427;28;20039;-68
2022/05/01 04:32:48;;;;;;;1.35;1.25;;;;;;;11.13;89.17;101647.38;5089899;28;20063;-69
2022/05/01 04:35:32;;;;;;;2.72;1.67;;;;;;;11.19;88.88;101652.19;5090133;28;20044;-69
2022/05/01 04:38:04;;;;;;;1.17;1.05;;;;;;;11.26;87.63;101655.16;5084749;28;20039;-69
2022/05/01 04:40:35;;;;;;;7.82;1.52;;;;;;;11.08;89.77;101652.94;5089919;28;20044;-69
2022/05/01 04:43:12;;;;;;;2.93;1.37;;;;;;;11.05;90.03;101650.94;5090860;28;20743;-69
2022/05/01 04:45:40;;;;;;;1.50;1.40;;;;;;;11.28;88.54;101661.00;5089587;28;20488;-69
2022/05/01 04:48:08;;;;;;;7.90;2.05;;;;;;;11.16;89.12;101652.09;5086927;28;20036;-69
2022/05/01 04:50:34;;;;;;;3.30;2.03;;;;;;;11.25;89.10;101658.16;5081866;28;20036;-69
2022/05/01 04:53:01;;;;;;;19.33;1.38;;;;;;;11.17;90.22;101653.66;5085170;28;20124;-69
2022/05/01 04:55:27;;;;;;;3.70;1.63;;;;;;;11.23;88.99;101658.50;5089160;28;20116;-69
2022/05/01 04:57:53;;;;;;;2.15;1.25;;;;;;;11.21;89.67;101654.56;5088743;28;20035;-69
2022/05/01 05:00:19;;;;;;;1.35;1.25;;;;;;;11.24;89.49;101659.28;5087678;28;20431;-67
2022/05/01 05:02:48;;;;;;;1.38;1.08;;;;;;;11.43;88.47;101667.63;5088552;28;20085;-68
2022/05/01 05:05:15;;;;;;;1.60;0.95;;;;;;;11.56;88.39;101677.31;5086794;28;20031;-69
2022/05/01 05:07:41;;;;;;;1.58;1.27;;;;;;;11.32;88.85;101666.50;5081599;28;20031;-69
2022/05/01 05:10:08;;;;;;;1.60;0.95;;;;;;;11.54;88.22;101674.16;5084362;28;20040;-69
2022/05/01 05:12:36;;;;;;;1.15;1.05;;;;;;;11.52;88.49;101669.13;5088095;28;20571;-69
2022/05/01 05:15:03;;;;;;;1.95;1.42;;;;;;;11.42;88.92;101677.63;5092850;28;20024;-69
2022/05/01 05:17:31;;;;;;;2.90;1.25;;;;;;;11.39;89.72;101666.72;5091442;28;20142;-69
2022/05/01 05:19:57;;;;;;;1.42;1.27;;;;;;;11.31;90.27;101673.81;5090774;28;20031;-69
2022/05/01 05:22:23;;;;;;;1.52;0.95;;;;;;;11.29;89.92;101675.25;5092572;28;20024;-69
2022/05/01 05:24:48;;;;;;;20.77;1.23;;;;;;;11.26;89.99;101678.63;5092072;28;20024;-69
2022/05/01 05:27:14;;;;;;;6.25;1.55;;;;;;;11.41;89.80;101673.38;5089902;28;20043;-69
2022/05/01 05:29:40;;;;;;;1.35;1.00;;;;;;;11.35;89.45;101677.41;5069167;28;20031;-69
2022/05/01 05:32:06;;;;;;;2.33;0.82;;;;;;;11.66;87.93;101682.31;5092513;28;20078;-69
2022/05/01 05:34:32;;;;;;;0.75;0.75;;;;;;;11.89;86.02;101679.94;5091709;28;20036;-69
2022/05/01 05:36:57;;;;;;;4.40;0.77;;;;;;;11.65;87.89;101675.31;5091506;28;20031;-69
2022/05/01 05:39:23;;;;;;;2.15;1.20;;;;;;;11.46;89.51;101683.13;5090218;28;20031;-68
2022/05/01 05:41:49;;;;;;;1.08;1.02;;;;;;;11.51;88.87;101688.34;5091446;28;20034;-67
2022/05/01 05:44:14;;;;;;;2.22;0.90;;;;;;;11.71;87.07;101682.09;5091983;28;20031;-69
2022/05/01 05:46:40;;;;;;;1.70;1.25;;;;;;;11.73;87.18;101690.63;5091167;28;20031;-69
2022/05/01 05:49:06;;;;;;;1.08;0.98;;;;;;;11.67;87.09;101689.28;5074166;28;20042;-68
2022/05/01 05:51:31;;;;;;;2.13;1.20;;;;;;;11.62;88.04;101686.78;5092117;28;20034;-69
2022/05/01 05:53:57;;;;;;;0.60;0.60;;;;;;;11.78;87.32;101695.81;5091715;28;20031;-70
2022/05/01 05:56:22;;;;;;;1.95;1.42;;;;;;;11.66;86.82;101682.31;5091532;28;20676;-69
2022/05/01 05:58:48;;;;;;;3.03;0.95;;;;;;;11.67;87.19;101683.91;5091799;28;20040;-69
2022/05/01 06:01:14;;;;;;;1.02;0.82;;;;;;;11.64;87.76;101685.31;5093152;28;20043;-67
2022/05/01 06:03:39;;;;;;;1.98;1.27;;;;;;;11.73;86.86;101679.81;5089462;28;20115;-68
2022/05/01 06:06:06;;;;;;;0.77;0.77;;;;;;;11.73;87.30;101675.22;5088457;28;20097;-69
2022/05/01 06:08:32;;;;;;;8.00;1.48;;;;;;;11.74;87.48;101684.13;5092021;28;20040;-68
2022/05/01 06:10:57;;;;;;;1.45;1.00;;;;;;;11.77;86.54;101683.44;5086691;28;20035;-67
2022/05/01 06:13:23;;;;;;;1.55;1.27;;;;;;;11.71;87.19;101690.97;5089317;28;20032;-69
2022/05/01 06:15:48;;;;;;;9.50;1.48;;;;;;;11.96;86.04;101696.38;5091950;28;20057;-69
2022/05/01 06:18:14;;;;;;;3.42;1.08;;;;;;;12.20;85.03;101696.34;5089850;28;20483;-68
2022/05/01 06:20:40;;;;;;;3.83;1.52;;;;;;;11.90;86.14;101698.53;5087743;28;20036;-69
2022/05/01 06:23:26;;;;;;;5.22;1.25;;;;;;;11.85;87.42;101693.34;5090876;28;20028;-69
2022/05/01 06:25:51;;;;;;;1.88;1.15;;;;;;;12.10;86.46;101697.59;4988701;28;20129;-69
2022/05/01 06:28:17;;;;;;;1.25;0.80;;;;;;;12.10;87.02;101702.22;4984417;28;20128;-69
2022/05/01 06:30:48;;;;;;;2.30;1.08;;;;;;;12.40;84.75;101700.84;4989770;28;20038;-69
2022/05/01 06:33:15;;;;;;;1.00;0.90;;;;;;;12.24;86.60;101697.25;4989170;28;20042;-68
2022/05/01 06:35:42;;;;;;;1.10;0.90;;;;;;;12.44;85.45;101702.53;4988516;28;20494;-69
2022/05/01 06:38:08;;;;;;;2.42;1.13;;;;;;;12.51;85.56;101707.34;4985189;28;20454;-66
2022/05/01 06:40:34;;;;;;;2.08;1.00;;;;;;;12.93;83.80;101707.78;4986386;28;20038;-68
2022/05/01 06:43:00;;;;;;;3.70;0.98;;;;;;;13.07;82.98;101697.34;4988538;28;20050;-69
2022/05/01 06:45:25;;;;;;;2.35;1.33;;;;;;;13.21;82.51;101703.16;4987812;28;20042;-69
2022/05/01 06:47:51;;;;;;;0.73;0.73;;;;;;;13.40;80.80;101693.25;4989207;28;20569;-68
2022/05/01 06:50:16;;;;;;;2.72;1.20;;;;;;;13.46;80.90;101683.72;4989954;28;20065;-69
2022/05/01 06:52:42;;;;;;;2.47;1.05;;;;;;;13.72;81.07;101688.63;4989871;28;20076;-70
2022/05/01 06:55:09;;;;;;;1.20;1.05;;;;;;;13.89;78.89;101687.47;4990924;28;20049;-69
2022/05/01 06:57:34;;;;;;;1.10;1.00;;;;;;;14.13;77.97;101687.28;4991991;28;20145;-70
2022/05/01 07:00:00;;;;;;;2.50;1.08;;;;;;;14.26;77.01;101677.88;4977633;28;20542;-69
2022/05/01 07:02:25;;;;;;;4.47;0.90;;;;;;;14.52;75.94;101686.22;5016330;28;20052;-69
2022/05/01 07:04:50;;;;;;;1.00;0.90;;;;;;;14.60;73.02;101682.50;5080298;28;20037;-67
2022/05/01 07:07:16;;;;;;;1.55;0.90;;;;;;;14.74;71.64;101682.81;5079032;28;20044;-69
2022/05/01 07:09:42;;;;;;;2.85;0.88;;;;;;;14.92;70.73;101673.09;5089160;28;20047;-69
2022/05/01 07:12:10;;;;;;;6.43;2.42;;;;;;;14.98;69.85;101682.50;5091815;28;20036;-70
2022/05/01 07:14:37;;;;;;;0.93;0.70;;;;;;;15.20;68.84;101683.66;5090283;28;20039;-68
2022/05/01 07:17:03;;;;;;;0.60;0.50;;;;;;;15.28;66.98;101693.53;5090803;28;20040;-70
2022/05/01 07:19:29;;;;;;;1.20;0.57;;;;;;;15.57;65.90;101692.91;5092212;28;20036;-69
2022/05/01 07:21:54;;;;;;;0.70;0.70;;;;;;;15.74;65.31;101697.84;5091159;28;20038;-68
2022/05/01 07:24:19;;;;;;;5.45;0.52;;;;;;;15.96;64.94;101698.97;5079921;28;20028;-69
2022/05/01 07:26:45;;;;;;;0.57;0.47;;;;;;;16.11;62.01;101701.53;5076605;28;20024;-69
2022/05/01 07:29:10;;;;;;;0.85;0.60;;;;;;;16.18;62.55;101698.13;5090304;28;20042;-69
2022/05/01 07:31:35;;;;;;;0.70;0.52;;;;;;;16.45;61.80;101698.88;5091145;28;20036;-70
2022/05/01 07:34:01;;;;;;;7.32;0.90;;;;;;;16.51;60.46;101702.88;5072879;28;20032;-70
2022/05/01 07:36:26;;;;;;;0.68;0.60;;;;;;;16.50;60.73;101701.31;5089842;28;20040;-70
2022/05/01 07:38:52;;;;;;;1.40;0.70;;;;;;;16.51;59.37;101703.66;5090305;28;20372;-71
2022/05/01 07:41:18;;;;;;;0.50;0.50;;;;;;;16.67;59.96;101701.53;5091033;28;20039;-71
2022/05/01 07:43:44;;;;;;;0.57;0.57;;;;;;;17.00;58.53;101708.91;5090046;28;20032;-70
2022/05/01 07:46:10;;;;;;;0.40;0.40;;;;;;;16.92;58.26;101702.63;5090176;28;20108;-69
2022/05/01 07:48:35;;;;;;;0.55;0.38;;;;;;;17.49;56.30;101709.47;5071648;28;20063;-69
2022/05/01 07:51:01;;;;;;;0.82;0.50;;;;;;;17.28;55.99;101709.22;5082467;28;20403;-69
2022/05/01 07:53:26;;;;;;;0.65;0.45;;;;;;;17.06;57.08;101712.88;5081886;28;20025;-70
2022/05/01 07:55:52;;;;;;;1.08;0.60;;;;;;;17.10;56.26;101711.78;5085862;28;20055;-69
2022/05/01 07:58:20;;;;;;;1.02;0.60;;;;;;;17.44;53.94;101707.03;5079820;28;20035;-68
2022/05/01 08:00:46;;;;;;;1.25;0.82;;;;;;;17.78;52.04;101710.50;5086442;28;20039;-69
2022/05/01 08:05:56;;;;;;;1.98;0.55;;;;;;;17.76;50.56;101702.69;5083083;28;20376;-70
2022/05/01 08:08:21;;;;;;;4.95;0.70;;;;;;;17.63;51.50;101715.06;5088143;28;20035;-69
2022/05/01 08:10:47;;;;;;;0.65;0.43;;;;;;;17.15;53.91;101702.47;5091179;28;20063;-71
2022/05/01 08:13:12;;;;;;;0.90;0.60;;;;;;;17.36;54.76;101712.81;5090502;28;20039;-68
2022/05/01 08:15:38;;;;;;;0.85;0.52;;;;;;;17.26;54.78;101705.31;5093957;28;20110;-70
2022/05/01 08:21:05;;;;;;;0.68;0.45;;;;;;;17.01;54.02;101699.63;5089144;28;20043;-70
2022/05/01 08:23:32;;;;;;;1.13;0.60;;;;;;;17.09;53.35;101703.97;5090557;28;20384;-70
2022/05/01 08:26:02;;;;;;;0.43;0.40;;;;;;;17.63;54.04;101709.59;5090172;28;20515;-70
2022/05/01 08:28:34;;;;;;;0.28;0.28;;;;;;;17.59;51.85;101708.78;5082983;28;20035;-67
2022/05/01 08:31:01;;;;;;;3.15;0.57;;;;;;;17.53;51.24;101713.00;5085101;28;20115;-69
2022/05/01 08:33:27;;;;;;;0.38;0.38;;;;;;;17.91;51.46;101706.28;5089331;28;20047;-70
2022/05/01 08:35:53;;;;;;;0.50;0.50;;;;;;;17.92;51.84;101707.88;5089032;28;20036;-69
2022/05/01 08:38:19;;;;;;;2.08;0.77;;;;;;;18.44;49.17;101707.47;5089082;28;20054;-69
2022/05/01 08:40:47;;;;;;;3.53;0.75;;;;;;;18.41;48.96;101713.63;5090091;28;20043;-69
2022/05/01 08:43:17;;;;;;;0.55;0.40;;;;;;;18.72;51.11;101704.84;5072129;28;20035;-70
2022/05/01 08:46:15;;;;;;;0.40;0.40;;;;;;;19.05;51.24;101705.75;5088373;28;20032;-68
2022/05/01 08:48:55;;;;;;;1.23;0.40;;;;;;;19.13;51.20;101710.03;5051755;28;20043;-70
2022/05/01 08:51:21;;;;;;;1.90;0.43;;;;;;;18.83;49.00;101702.94;5081727;28;20047;-70
2022/05/01 08:53:47;;;;;;;0.30;0.30;;;;;;;18.69;49.08;101699.38;5081793;28;21727;-70
2022/05/01 08:56:13;;;;;;;3.80;0.30;;;;;;;18.79;45.47;101704.09;5077854;28;20181;-68
2022/05/01 08:58:42;;;;;;;0.10;0.10;;;;;;;18.72;44.48;101699.38;5079970;28;20039;-69
2022/05/01 09:01:11;;;;;;;0.50;0.22;;;;;;;18.33;44.15;101705.81;5081763;28;20353;-70
2022/05/01 09:03:39;;;;;;;0.30;0.17;;;;;;;18.67;43.03;101707.16;5082439;28;20039;-70
2022/05/01 09:06:05;;;;;;;0.30;0.30;;;;;;;18.89;42.25;101709.59;5080403;28;20123;-69
2022/05/01 09:08:30;;;;;;;0.20;0.20;;;;;;;19.08;43.45;101703.03;5068334;28;20118;-69
2022/05/01 09:10:55;;;;;;;0.10;0.10;;;;;;;18.96;44.73;101705.31;5086732;28;20035;-69
2022/05/01 09:13:25;;;;;;;0.20;0.10;;;;;;;19.38;45.50;101700.75;5082992;28;20060;-69
2022/05/01 09:15:51;;;;;;;0.22;0.20;;;;;;;19.42;44.02;101707.03;5077545;28;20043;-69
2022/05/01 09:18:16;;;;;;;0.20;0.20;;;;;;;19.21;42.94;101706.97;5080593;28;20380;-68
2022/05/01 09:21:07;;;;;;;0.10;0.10;;;;;;;18.80;42.33;101711.91;5082773;28;20031;-68
2022/05/01 09:23:44;;;;;;;0.22;0.10;;;;;;;18.67;43.27;101698.97;5082755;28;20039;-69
2022/05/01 09:26:15;;;;;;;0.68;0.20;;;;;;;18.86;43.67;101698.66;5084264;28;20039;-69
2022/05/01 09:28:48;;;;;;;;;;;;;;;19.20;44.07;101704.63;5083476;28;20036;-69
2022/05/01 09:31:14;;;;;;;0.28;0.17;;;;;;;19.37;42.90;101701.16;5084978;28;20040;-69
2022/05/01 09:33:39;;;;;;;1.90;0.20;;;;;;;19.26;42.17;101698.38;5083212;28;20036;-69
2022/05/01 09:36:05;;;;;;;0.20;0.13;;;;;;;19.43;40.81;101711.31;5086958;28;20090;-69
2022/05/01 09:38:30;;;;;;;0.10;0.10;;;;;;;19.46;39.98;101704.28;5069496;28;20098;-69
2022/05/01 09:41:00;;;;;;;0.15;0.10;;;;;;;19.49;40.54;101698.06;5087456;28;20062;-69
2022/05/01 09:43:44;;;;;;;0.40;0.13;;;;;;;19.87;39.32;101694.53;5084492;28;20052;-68
2022/05/01 09:46:10;;;;;;;0.43;0.10;;;;;;;19.77;39.15;101701.56;5083430;28;20037;-70
2022/05/01 09:48:35;;;;;;;0.40;0.22;;;;;;;19.82;39.10;101702.34;5079794;28;20033;-69
2022/05/01 09:51:13;;;;;;;0.20;0.20;;;;;;;19.71;40.16;101696.88;5087869;22;20280;-68
2022/05/01 09:53:43;;;;;;;1.02;0.20;;;;;;;19.84;41.16;101700.00;5083674;28;20043;-71
2022/05/01 09:56:09;;;;;;;0.28;0.08;;;;;;;20.08;40.98;101696.44;5100662;28;20089;-68
2022/05/01 09:58:38;;;;;;;0.10;0.10;;;;;;;20.10;39.53;101697.63;5102290;28;20031;-68
2022/05/01 10:01:11;;;;;;;0.20;0.20;;;;;;;20.26;38.80;101698.03;5101285;28;20048;-70
2022/05/01 10:03:40;;;;;;;0.10;0.10;;;;;;;20.60;38.89;101693.59;5078354;28;20084;-68
2022/05/01 10:06:09;;;;;;;1.88;0.30;;;;;;;20.48;37.57;101694.03;5101923;27;20398;-68
2022/05/01 10:08:37;;;;;;;0.10;0.10;;;;;;;19.65;38.17;101688.28;5093664;28;20042;-68
2022/05/01 10:11:03;;;;;;;0.70;0.17;;;;;;;19.22;37.70;101691.34;5095584;28;20074;-71
2022/05/01 10:13:28;;;;;;;0.17;0.10;;;;;;;19.27;38.45;101685.50;5074004;28;20150;-70
2022/05/01 10:15:54;;;;;;;0.08;0.05;;;;;;;20.01;39.15;101686.31;5097146;27;20035;-70
2022/05/01 10:18:24;;;;;;;0.20;0.17;;;;;;;20.05;38.02;101683.56;5100093;27;20059;-70
2022/05/01 10:20:49;;;;;;;0.30;0.10;;;;;;;20.37;38.03;101687.03;5075437;28;20036;-69
2022/05/01 10:23:19;;;;;;;0.28;0.15;;;;;;;20.33;37.50;101680.78;5101208;28;20020;-69
2022/05/01 10:26:10;;;;;;;0.28;0.20;;;;;;;20.58;36.96;101689.69;5100775;28;20031;-69
2022/05/01 10:28:50;;;;;;;3.80;0.30;;;;;;;20.65;36.69;101689.69;5083672;27;20043;-68
2022/05/01 10:34:46;;;;;;;0.38;0.10;;;;;;;20.32;35.52;101676.50;5090688;27;20028;-71
2022/05/01 10:37:30;;;;;;;0.10;0.10;;;;;;;20.04;35.40;101682.00;5096749;27;20077;-69
2022/05/01 10:39:58;;;;;;;0.00;0.00;;;;;;;19.89;34.08;101683.19;5097545;28;20031;-69
2022/05/01 10:42:42;;;;;;;0.10;0.10;;;;;;;19.19;34.19;101668.31;5095662;28;20042;-71
2022/05/01 10:45:28;;;;;;;0.13;0.13;;;;;;;19.02;35.78;101669.06;5078569;28;20108;-70
2022/05/01 10:47:57;;;;;;;0.63;0.20;;;;;;;18.88;37.57;101672.56;5051071;28;20092;-71
2022/05/01 10:50:26;;;;;;;0.40;0.17;;;;;;;19.10;38.83;101669.88;5094783;28;20028;-69
2022/05/01 10:53:05;;;;;;;0.28;0.20;;;;;;;18.85;38.11;101670.56;5080831;28;20039;-69
2022/05/01 10:55:44;;;;;;;0.55;0.32;;;;;;;18.80;37.87;101664.72;5086533;28;20027;-70
2022/05/01 10:58:25;;;;;;;0.28;0.20;;;;;;;18.67;39.02;101667.03;5099151;28;20785;-71
2022/05/01 11:00:51;;;;;;;0.30;0.20;;;;;;;18.74;39.31;101669.78;5087705;27;20139;-70
2022/05/01 11:03:32;;;;;;;0.30;0.30;;;;;;;18.72;39.31;101668.56;5076152;28;20034;-70
2022/05/01 11:06:04;;;;;;;0.20;0.20;;;;;;;18.81;38.60;101661.59;5069758;28;20115;-69
2022/05/01 11:08:36;;;;;;;0.20;0.17;;;;;;;18.73;40.10;101660.03;5103382;28;20032;-69
2022/05/01 11:11:05;;;;;;;0.50;0.20;;;;;;;18.88;40.89;101658.09;5098362;28;20091;-69
2022/05/01 11:13:36;;;;;;;0.10;0.10;;;;;;;18.83;40.00;101662.00;5095451;28;20055;-71
2022/05/01 11:16:03;;;;;;;0.55;0.40;;;;;;;18.91;39.96;101660.09;5081093;28;20040;-69
2022/05/01 11:18:33;;;;;;;3.47;0.40;;;;;;;18.79;38.28;101649.50;5096593;28;20132;-70
2022/05/01 11:21:24;;;;;;;0.10;0.10;;;;;;;19.01;39.01;101653.09;5098134;27;20043;-69
2022/05/01 11:24:01;;;;;;;0.77;0.40;;;;;;;19.53;38.30;101644.19;5085394;28;20196;-69
2022/05/01 11:26:27;;;;;;;0.45;0.22;;;;;;;19.57;38.38;101653.94;5102347;27;20022;-69
2022/05/01 11:29:13;;;;;;;0.28;0.20;;;;;;;19.73;37.76;101645.31;5104124;27;20023;-69
2022/05/01 11:31:39;;;;;;;0.10;0.10;;;;;;;19.55;38.46;101647.31;5109281;27;20135;-69
2022/05/01 11:34:16;;;;;;;0.80;0.17;;;;;;;19.62;38.36;101652.75;5098185;27;20041;-69
2022/05/01 11:36:57;;;;;;;0.10;0.10;;;;;;;19.52;38.47;101653.53;5096053;27;20059;-69
2022/05/01 11:39:45;;;;;;;0.20;0.10;;;;;;;19.89;39.56;101656.63;5096187;28;20042;-69
2022/05/01 11:42:23;;;;;;;0.55;0.20;;;;;;;19.61;39.58;101651.97;5100079;28;20123;-69
2022/05/01 11:44:49;;;;;;;0.40;0.32;;;;;;;19.55;40.14;101659.00;5086883;28;20108;-68
2022/05/01 11:47:22;;;;;;;0.20;0.20;;;;;;;19.47;39.56;101656.69;5099415;28;20069;-67
2022/05/01 11:49:47;;;;;;;0.25;0.10;;;;;;;19.48;40.35;101653.53;5093545;28;20089;-69
2022/05/01 11:52:14;;;;;;;0.22;0.13;;;;;;;19.26;40.51;101646.47;5081035;28;20043;-68